SBCJ/CKS METAR and TAF weather

Enter ICAO airport designator
Station Type Date Time Source
SBCJ METAR 2019/11/18 11:00 UTC NOAA

SBCJ 181100Z 00000KT 2000 BR OVC002 22/21 Q1015


Station Type Date Time Source
SBCJ Decoded METAR 2019/11/18 11:00 UTC NOAA

Carajas / Maraba, Brazil (SBCJ) 06-07S 050-00W
Nov 18, 2019 - 06:00 AM EST / 2019.11.18 1100 UTC
Wind: Calm:0
Visibility: 1 mile(s):0
Sky conditions: overcast
Weather: mist
Temperature: 71 F (22 C)
Dew Point: 69 F (21 C)
Relative Humidity: 94%
Pressure (altimeter): 29.97 in. Hg (1015 hPa)
ob: SBCJ 181100Z 00000KT 2000 BR OVC002 22/21 Q1015
cycle: 11

Station Type Date Time Source
SBCJ TAF 2019/11/18 12:18 UTC NOAA

TAF TAF SBCJ 180915Z 1812/1824 00000KT 2000 BR BKN004 TN23/1812Z TX27/1818Z PROB30 1812/1813 0900 FG VV001
BECMG 1813/1815 07005KT 5000 FU BKN012
BECMG 1816/1818 SCT012 PROB30 1818/1821 07010KT 5000 TSRA SCT017 FEW030CB
BECMG 1821/1823 00000KT 7000 NSW NSC
RMK PGS

Example: see airport list